createdAt,value
2018-05-04T00:00:59.725Z,72.20
2018-05-04T00:03:28.783Z,73.10
2018-05-04T00:05:57.028Z,73.20
2018-05-04T00:08:25.280Z,73.40
2018-05-04T00:10:53.579Z,73.80
2018-05-04T00:13:21.852Z,74.10
2018-05-04T00:15:50.091Z,74.20
2018-05-04T00:18:19.125Z,74.40
2018-05-04T00:20:47.387Z,74.30
2018-05-04T00:23:15.645Z,74.10
2018-05-04T00:25:44.656Z,74.10
2018-05-04T00:28:12.897Z,74.10
2018-05-04T00:30:41.930Z,74.10
2018-05-04T00:33:10.207Z,74.10
2018-05-04T00:35:38.754Z,73.90
2018-05-04T00:38:06.972Z,74.20
2018-05-04T00:40:35.241Z,74.00
2018-05-04T00:43:03.481Z,74.20
2018-05-04T00:45:32.484Z,74.70
2018-05-04T00:48:00.733Z,74.70
2018-05-04T00:50:28.972Z,74.70
2018-05-04T00:52:57.259Z,74.80
2018-05-04T00:55:25.614Z,75.30
2018-05-04T00:57:53.852Z,75.20
2018-05-04T01:00:22.895Z,75.30
2018-05-04T01:02:51.132Z,75.20
2018-05-04T01:05:19.401Z,75.40
2018-05-04T01:07:47.638Z,75.50
2018-05-04T01:10:15.986Z,75.40
2018-05-04T01:12:44.309Z,75.30
2018-05-04T01:15:15.034Z,75.20
2018-05-04T01:17:43.245Z,75.20
2018-05-04T01:20:11.497Z,75.40
2018-05-04T01:22:40.500Z,75.50
2018-05-04T01:25:09.504Z,75.70
2018-05-04T01:27:37.803Z,75.70
2018-05-04T01:30:06.083Z,75.60
2018-05-04T01:32:34.319Z,75.80
2018-05-04T01:35:03.324Z,75.70
2018-05-04T01:37:31.610Z,75.70
2018-05-04T01:39:59.849Z,75.70
2018-05-04T01:42:29.232Z,75.60
2018-05-04T01:44:57.468Z,75.60
2018-05-04T01:47:25.704Z,75.60
2018-05-04T01:49:54.741Z,75.80
2018-05-04T01:52:23.016Z,75.80
2018-05-04T01:54:51.325Z,75.60
2018-05-04T01:57:19.541Z,75.60
2018-05-04T01:59:47.844Z,75.80
2018-05-04T02:02:16.080Z,76.30
2018-05-04T02:04:45.084Z,76.60
2018-05-04T02:07:13.343Z,76.60
2018-05-04T02:09:41.693Z,76.80
2018-05-04T02:12:09.911Z,77.50
2018-05-04T02:14:38.210Z,77.60
2018-05-04T02:17:06.489Z,77.70
2018-05-04T02:19:34.759Z,77.90
2018-05-04T02:22:02.989Z,78.20
2018-05-04T02:24:32.053Z,78.80
2018-05-04T02:27:00.344Z,78.80
2018-05-04T02:29:28.568Z,78.80
2018-05-04T02:31:56.857Z,79.00
2018-05-04T02:34:25.094Z,78.80
2018-05-04T02:36:54.120Z,78.20
2018-05-04T02:39:22.357Z,78.20
2018-05-04T02:41:51.398Z,78.10
2018-05-04T02:44:19.628Z,78.10
2018-05-04T02:46:48.701Z,77.90
2018-05-04T02:49:16.932Z,77.90
2018-05-04T02:51:45.209Z,77.60
2018-05-04T02:54:13.439Z,77.40
2018-05-04T02:56:42.484Z,77.70
2018-05-04T02:59:10.726Z,77.80
2018-05-04T03:01:39.751Z,78.50
2018-05-04T03:04:07.983Z,78.40
2018-05-04T03:06:36.987Z,77.90
2018-05-04T03:09:06.061Z,77.90
2018-05-04T03:11:34.381Z,78.20
2018-05-04T03:14:02.634Z,78.60
2018-05-04T03:16:31.664Z,79.10
2018-05-04T03:18:59.915Z,79.10
2018-05-04T03:21:28.195Z,79.50
2018-05-04T03:23:56.477Z,79.40
2018-05-04T03:26:24.720Z,79.70
2018-05-04T03:28:53.749Z,80.00
2018-05-04T03:31:21.992Z,80.00
2018-05-04T03:33:51.016Z,80.40
2018-05-04T03:36:19.259Z,80.50
2018-05-04T03:38:48.272Z,80.00
2018-05-04T03:41:16.503Z,79.90
2018-05-04T03:43:44.781Z,79.70
2018-05-04T03:46:13.838Z,79.50
2018-05-04T03:48:42.089Z,79.20
2018-05-04T03:51:10.379Z,78.70
2018-05-04T03:53:38.632Z,79.10
2018-05-04T03:56:06.931Z,79.00
2018-05-04T03:58:47.152Z,78.50
2018-05-04T04:01:28.162Z,77.40
2018-05-04T04:04:07.297Z,77.40
2018-05-04T04:06:35.537Z,76.60
2018-05-04T04:09:05.932Z,76.20
2018-05-04T04:11:35.055Z,76.20
2018-05-04T04:14:04.062Z,75.10
2018-05-04T04:16:32.384Z,75.10
2018-05-04T04:19:00.596Z,74.50
2018-05-04T04:21:29.625Z,73.50
2018-05-04T04:23:57.899Z,73.50
2018-05-04T04:26:26.189Z,73.10
2018-05-04T04:28:54.452Z,72.10
2018-05-04T04:31:22.728Z,71.10
2018-05-04T04:33:50.969Z,70.10
2018-05-04T04:36:19.993Z,68.40
2018-05-04T04:38:48.325Z,68.40
2018-05-04T04:41:17.266Z,66.00
2018-05-04T04:43:45.554Z,66.00
2018-05-04T04:46:13.844Z,64.70
2018-05-04T04:48:42.205Z,64.20
2018-05-04T04:51:10.456Z,63.00
2018-05-04T04:53:38.717Z,61.90
2018-05-04T04:56:07.020Z,60.30
2018-05-04T04:58:35.306Z,59.30
2018-05-04T05:01:03.553Z,57.90
2018-05-04T05:03:31.847Z,56.90
2018-05-04T05:06:01.013Z,55.90
2018-05-04T05:08:29.389Z,55.30
2018-05-04T05:10:58.399Z,57.20
2018-05-04T05:13:26.725Z,57.20
2018-05-04T05:15:54.895Z,56.10
2018-05-04T05:18:23.147Z,55.40
2018-05-04T05:20:51.421Z,53.90
2018-05-04T05:23:19.698Z,52.80
2018-05-04T05:25:48.934Z,52.90
2018-05-04T05:28:17.193Z,50.70
2018-05-04T05:30:45.441Z,48.90
2018-05-04T05:33:13.678Z,47.70
2018-05-04T05:35:42.699Z,45.40
2018-05-04T05:38:10.985Z,45.40
2018-05-04T05:40:39.269Z,44.00
2018-05-04T05:43:07.511Z,42.90
2018-05-04T05:45:35.804Z,42.60
2018-05-04T05:48:04.044Z,42.50
2018-05-04T05:50:33.070Z,39.70
2018-05-04T05:53:01.319Z,39.70
2018-05-04T05:55:30.363Z,37.70
2018-05-04T05:57:58.650Z,37.70
2018-05-04T06:00:26.883Z,34.50
2018-05-04T06:02:55.141Z,32.10
2018-05-04T06:05:24.189Z,30.10
2018-05-04T06:07:52.427Z,30.00
2018-05-04T06:10:20.750Z,29.30
2018-05-04T06:12:48.974Z,27.50
2018-05-04T06:15:17.270Z,26.60
2018-05-04T06:17:45.512Z,25.50
2018-05-04T06:20:13.820Z,25.40
2018-05-04T06:22:42.089Z,26.90
2018-05-04T06:25:10.610Z,27.00
2018-05-04T06:27:38.715Z,27.00
2018-05-04T06:30:06.964Z,28.00
2018-05-04T06:32:35.230Z,28.40
2018-05-04T06:35:03.472Z,29.30
2018-05-04T06:37:31.719Z,28.50
2018-05-04T06:39:59.969Z,29.60
2018-05-04T06:42:29.018Z,31.30
2018-05-04T06:44:57.287Z,31.30
2018-05-04T06:47:25.546Z,30.80
2018-05-04T06:49:53.790Z,31.60
2018-05-04T06:52:22.824Z,33.60
2018-05-04T06:54:51.121Z,33.60
2018-05-04T06:57:19.371Z,33.90
2018-05-04T06:59:47.620Z,33.90
2018-05-04T07:02:16.646Z,36.70
2018-05-04T07:04:44.881Z,36.70
2018-05-04T07:07:13.907Z,39.40
2018-05-04T07:09:42.227Z,39.40
2018-05-04T07:12:10.457Z,39.00
2018-05-04T07:14:38.722Z,38.50
2018-05-04T07:17:06.981Z,38.80
2018-05-04T07:19:36.021Z,37.80
2018-05-04T07:22:04.409Z,37.80
2018-05-04T07:24:32.629Z,38.50
2018-05-04T07:27:00.884Z,38.50
2018-05-04T07:29:29.904Z,37.30
2018-05-04T07:31:58.148Z,37.20
2018-05-04T07:34:26.487Z,37.00
2018-05-04T07:36:54.732Z,38.30
2018-05-04T07:39:23.034Z,39.00
2018-05-04T07:41:51.283Z,37.40
2018-05-04T07:44:19.540Z,37.20
2018-05-04T07:46:48.552Z,40.50
2018-05-04T07:49:16.859Z,40.50
2018-05-04T07:51:45.097Z,40.90
2018-05-04T07:54:13.347Z,40.10
2018-05-04T07:56:42.357Z,40.70
2018-05-04T07:59:10.633Z,40.70
2018-05-04T08:01:39.641Z,39.40
2018-05-04T08:04:07.937Z,39.40
2018-05-04T08:06:36.184Z,38.50
2018-05-04T08:09:04.488Z,37.90
2018-05-04T08:11:32.767Z,38.00
2018-05-04T08:14:01.004Z,39.60
2018-05-04T08:16:30.022Z,40.30
2018-05-04T08:18:58.264Z,40.30
2018-05-04T08:21:27.280Z,39.40
2018-05-04T08:23:55.573Z,39.30
2018-05-04T08:26:23.821Z,36.80
2018-05-04T08:28:52.057Z,36.20
2018-05-04T08:31:21.821Z,35.80
2018-05-04T08:33:50.069Z,35.70
2018-05-04T08:36:19.105Z,36.70
2018-05-04T08:38:47.368Z,36.70
2018-05-04T08:41:15.621Z,37.10
2018-05-04T08:43:44.752Z,37.20
2018-05-04T08:46:13.034Z,37.20
2018-05-04T08:48:41.277Z,36.20
2018-05-04T08:51:09.618Z,38.10
2018-05-04T08:53:38.560Z,36.00
2018-05-04T08:56:06.844Z,36.00
2018-05-04T08:58:35.161Z,36.60
2018-05-04T09:01:03.393Z,37.30
2018-05-04T09:03:31.643Z,37.30
2018-05-04T09:05:59.901Z,37.50
2018-05-04T09:08:28.952Z,36.90
2018-05-04T09:10:57.204Z,36.90
2018-05-04T09:13:25.508Z,37.10
2018-05-04T09:15:53.750Z,37.70
2018-05-04T09:18:21.995Z,38.00
2018-05-04T09:20:51.009Z,38.70
2018-05-04T09:23:19.264Z,38.70
2018-05-04T09:25:47.584Z,38.70
2018-05-04T09:28:15.854Z,39.20
2018-05-04T09:30:44.094Z,39.80
2018-05-04T09:33:13.170Z,43.10
2018-05-04T09:35:41.393Z,42.90
2018-05-04T09:38:09.693Z,41.80
2018-05-04T09:40:37.961Z,41.40
2018-05-04T09:43:06.233Z,40.70
2018-05-04T09:45:34.479Z,41.20
2018-05-04T09:48:02.737Z,41.30
2018-05-04T09:50:30.994Z,42.50
2018-05-04T09:52:59.270Z,40.20
2018-05-04T09:55:27.517Z,41.00
2018-05-04T09:57:55.765Z,41.60
2018-05-04T10:00:24.018Z,41.30
2018-05-04T10:02:53.057Z,39.80
2018-05-04T10:05:21.299Z,39.70
2018-05-04T10:07:49.540Z,41.10
2018-05-04T10:10:17.806Z,42.60
2018-05-04T10:12:46.045Z,43.50
2018-05-04T10:15:14.328Z,43.20
2018-05-04T10:17:42.604Z,42.90
2018-05-04T10:20:10.876Z,42.40
2018-05-04T10:22:39.129Z,41.90
2018-05-04T10:25:07.372Z,40.50
2018-05-04T10:27:36.391Z,40.40
2018-05-04T10:30:04.708Z,40.30
2018-05-04T10:32:32.951Z,38.80
2018-05-04T10:35:01.250Z,39.90
2018-05-04T10:37:29.502Z,42.60
2018-05-04T10:39:57.754Z,41.10
2018-05-04T10:42:26.774Z,40.40
2018-05-04T10:44:55.029Z,40.30
2018-05-04T10:47:24.053Z,41.30
2018-05-04T10:49:52.309Z,41.20
2018-05-04T10:52:20.573Z,44.20
2018-05-04T10:54:49.576Z,45.20
2018-05-04T10:57:17.881Z,45.20
2018-05-04T10:59:46.852Z,44.80
2018-05-04T11:02:15.091Z,44.80
2018-05-04T11:04:44.099Z,46.10
2018-05-04T11:07:12.353Z,46.10
2018-05-04T11:09:40.593Z,46.60
2018-05-04T11:12:08.949Z,47.90
2018-05-04T11:14:37.234Z,45.50
2018-05-04T11:17:05.500Z,46.20
2018-05-04T11:19:33.928Z,45.30
2018-05-04T11:22:02.763Z,44.80
2018-05-04T11:24:31.017Z,44.80
2018-05-04T11:27:00.062Z,44.60
2018-05-04T11:29:28.395Z,44.60
2018-05-04T11:31:56.703Z,46.70
2018-05-04T11:34:25.004Z,47.10
2018-05-04T11:36:53.219Z,43.50
2018-05-04T11:39:21.477Z,46.10
2018-05-04T11:41:50.493Z,44.20
2018-05-04T11:44:18.837Z,44.20
2018-05-04T11:46:47.063Z,44.80
2018-05-04T11:49:15.328Z,45.40
2018-05-04T11:51:43.637Z,43.00
2018-05-04T11:54:11.876Z,42.50
2018-05-04T11:56:40.183Z,41.90
2018-05-04T11:59:08.465Z,42.90
2018-05-04T12:01:36.717Z,43.90
2018-05-04T12:04:04.976Z,45.70
2018-05-04T12:06:33.282Z,45.90
2018-05-04T12:09:01.567Z,47.10
2018-05-04T12:11:29.810Z,47.00
2018-05-04T12:13:58.061Z,46.60
2018-05-04T12:16:27.089Z,46.60
2018-05-04T12:18:55.345Z,46.60
2018-05-04T12:21:23.605Z,45.90
2018-05-04T12:23:52.620Z,46.90
2018-05-04T12:26:20.921Z,46.90
2018-05-04T12:28:49.200Z,47.80
2018-05-04T12:31:17.566Z,46.80
2018-05-04T12:33:45.757Z,48.50
2018-05-04T12:36:14.004Z,48.20
2018-05-04T12:38:42.843Z,47.60
2018-05-04T12:41:11.944Z,46.70
2018-05-04T12:43:40.285Z,46.70
2018-05-04T12:46:08.563Z,47.40
2018-05-04T12:48:36.815Z,47.50
2018-05-04T12:51:05.065Z,47.30
2018-05-04T12:53:34.103Z,46.30
2018-05-04T12:56:02.350Z,46.90
2018-05-04T12:58:30.607Z,45.50
2018-05-04T13:00:59.656Z,47.50
2018-05-04T13:03:27.888Z,47.50
2018-05-04T13:05:56.206Z,47.30
2018-05-04T13:08:24.470Z,45.70
2018-05-04T13:10:52.757Z,45.50
2018-05-04T13:13:21.035Z,45.80
2018-05-04T13:15:49.304Z,45.40
2018-05-04T13:18:17.577Z,46.60
2018-05-04T13:20:45.833Z,46.60
2018-05-04T13:23:14.143Z,48.00
2018-05-04T13:25:42.410Z,48.40
2018-05-04T13:28:10.665Z,48.10
2018-05-04T13:30:38.925Z,47.60
2018-05-04T13:33:07.196Z,47.60
2018-05-04T13:35:35.459Z,47.90
2018-05-04T13:38:04.489Z,46.90
2018-05-04T13:40:32.741Z,46.90
2018-05-04T13:43:00.989Z,45.90
2018-05-04T13:45:29.231Z,45.80
2018-05-04T13:47:57.508Z,46.90
2018-05-04T13:50:25.752Z,46.60
2018-05-04T13:52:54.061Z,46.60
2018-05-04T13:55:22.313Z,47.10
2018-05-04T13:57:50.609Z,45.60
2018-05-04T14:00:18.877Z,44.70
2018-05-04T14:02:47.124Z,45.90
2018-05-04T14:05:15.412Z,46.40
2018-05-04T14:07:43.701Z,45.10
2018-05-04T14:10:11.951Z,45.60
2018-05-04T14:12:40.241Z,45.80
2018-05-04T14:15:08.537Z,46.50
2018-05-04T14:17:36.788Z,47.90
2018-05-04T14:20:05.094Z,47.60
2018-05-04T14:22:33.338Z,46.70
2018-05-04T14:25:02.113Z,43.90
2018-05-04T14:27:30.365Z,43.10
2018-05-04T14:29:58.622Z,44.00
2018-05-04T14:32:26.874Z,43.10
2018-05-04T14:34:55.199Z,43.60
2018-05-04T14:37:23.413Z,42.70
2018-05-04T14:39:51.701Z,42.30
2018-05-04T14:42:19.975Z,43.40
2018-05-04T14:44:48.219Z,44.10
2018-05-04T14:47:16.533Z,43.40
2018-05-04T14:49:44.781Z,44.50
2018-05-04T14:52:13.073Z,44.30
2018-05-04T14:54:41.348Z,44.90
2018-05-04T14:57:09.621Z,45.70
2018-05-04T14:59:37.865Z,45.70
2018-05-04T15:02:06.117Z,45.40
2018-05-04T15:04:35.123Z,45.80
2018-05-04T15:07:04.217Z,46.50
2018-05-04T15:09:32.540Z,46.50
2018-05-04T15:12:00.845Z,47.30
2018-05-04T15:14:29.101Z,46.70
2018-05-04T15:16:57.386Z,47.30
2018-05-04T15:19:25.642Z,49.10
2018-05-04T15:21:53.911Z,47.20
2018-05-04T15:24:22.197Z,48.40
2018-05-04T15:26:50.456Z,47.40
2018-05-04T15:29:19.288Z,48.10
2018-05-04T15:31:47.521Z,47.90
2018-05-04T15:34:15.809Z,48.30
2018-05-04T15:36:44.057Z,47.80
2018-05-04T15:39:12.303Z,49.10
2018-05-04T15:41:41.321Z,48.40
2018-05-04T15:44:09.585Z,48.40
2018-05-04T15:46:38.612Z,48.50
2018-05-04T15:49:12.617Z,48.50
2018-05-04T15:51:46.491Z,48.90
2018-05-04T15:54:15.529Z,48.90
2018-05-04T15:56:43.779Z,48.90
2018-05-04T15:59:12.082Z,48.90
2018-05-04T16:01:40.320Z,49.00
2018-05-04T16:04:08.579Z,49.00
2018-05-04T16:06:37.671Z,49.70
2018-05-04T16:09:05.913Z,49.60
2018-05-04T16:11:34.174Z,49.30
2018-05-04T16:14:02.420Z,48.80
2018-05-04T16:16:30.690Z,48.90
2018-05-04T16:18:58.945Z,49.00
2018-05-04T16:21:27.980Z,48.90
2018-05-04T16:23:56.278Z,48.80
2018-05-04T16:26:24.553Z,49.80
2018-05-04T16:28:52.841Z,49.30
2018-05-04T16:31:21.081Z,49.10
2018-05-04T16:33:49.372Z,49.90
2018-05-04T16:36:17.625Z,49.20
2018-05-04T16:38:45.938Z,49.70
2018-05-04T16:41:14.164Z,49.20
2018-05-04T16:43:42.477Z,49.80
2018-05-04T16:46:16.348Z,48.90
2018-05-04T16:48:50.377Z,49.00
2018-05-04T16:51:18.641Z,49.20
2018-05-04T16:53:46.898Z,49.20
2018-05-04T16:56:16.033Z,48.30
2018-05-04T16:58:44.275Z,48.30
2018-05-04T17:01:12.562Z,48.70
2018-05-04T17:03:40.810Z,48.80
2018-05-04T17:06:09.824Z,48.80
2018-05-04T17:08:42.629Z,48.80
2018-05-04T17:11:10.925Z,49.00
2018-05-04T17:13:39.187Z,49.20
2018-05-04T17:16:07.425Z,49.60
2018-05-04T17:18:35.680Z,49.40
2018-05-04T17:21:04.725Z,49.90
2018-05-04T17:23:32.978Z,49.90
2018-05-04T17:26:01.225Z,49.40
2018-05-04T17:28:30.271Z,50.10
2018-05-04T17:30:58.489Z,50.10
2018-05-04T17:33:27.538Z,50.90
2018-05-04T17:35:55.776Z,50.30
2018-05-04T17:38:24.035Z,50.60
2018-05-04T17:40:53.043Z,50.20
2018-05-04T17:43:21.306Z,50.20
2018-05-04T17:45:50.343Z,50.70
2018-05-04T17:48:19.079Z,50.70
2018-05-04T17:50:48.126Z,50.10
2018-05-04T17:53:16.370Z,50.10
2018-05-04T17:55:44.623Z,50.40
2018-05-04T17:58:12.889Z,50.70
2018-05-04T18:00:41.338Z,50.40
2018-05-04T18:03:09.617Z,50.30
2018-05-04T18:05:37.864Z,50.10
2018-05-04T18:08:06.158Z,50.40
2018-05-04T18:10:34.405Z,50.70
2018-05-04T18:13:02.721Z,51.10
2018-05-04T18:15:30.975Z,51.10
2018-05-04T18:18:09.152Z,51.50
2018-05-04T18:20:39.021Z,52.00
2018-05-04T18:23:07.284Z,52.00
2018-05-04T18:25:35.554Z,52.10
2018-05-04T18:28:03.809Z,52.40
2018-05-04T18:30:32.795Z,52.30
2018-05-04T18:33:01.121Z,52.60
2018-05-04T18:35:30.439Z,53.10
2018-05-04T18:37:58.676Z,53.00
2018-05-04T18:40:26.917Z,53.20
2018-05-04T18:42:55.919Z,53.60
2018-05-04T18:45:24.185Z,53.60
2018-05-04T18:47:53.196Z,53.70
2018-05-04T18:50:21.497Z,53.70
2018-05-04T18:52:49.759Z,53.70
2018-05-04T18:55:18.050Z,53.60
2018-05-04T18:57:46.300Z,53.70
2018-05-04T19:00:14.558Z,53.70
2018-05-04T19:02:49.368Z,54.20
2018-05-04T19:05:18.421Z,54.30
2018-05-04T19:07:46.656Z,54.20
2018-05-04T19:10:14.956Z,54.20
2018-05-04T19:12:43.245Z,54.20
2018-05-04T19:15:12.492Z,54.30
2018-05-04T19:17:41.540Z,54.40
2018-05-04T19:20:09.817Z,54.40
2018-05-04T19:22:38.061Z,54.50
2018-05-04T19:25:06.304Z,54.50
2018-05-04T19:27:35.357Z,54.70
2018-05-04T19:30:03.595Z,54.70
2018-05-04T19:32:31.859Z,55.00
2018-05-04T19:35:00.873Z,56.80
2018-05-04T19:37:29.168Z,56.80
2018-05-04T19:39:57.451Z,57.30
2018-05-04T19:42:26.437Z,59.60
2018-05-04T19:44:54.681Z,59.60
2018-05-04T19:47:22.996Z,59.90
2018-05-04T19:49:51.244Z,60.10
2018-05-04T19:52:19.532Z,60.70
2018-05-04T19:54:48.308Z,60.90
2018-05-04T19:57:16.642Z,61.50
2018-05-04T19:59:44.971Z,61.40
2018-05-04T20:02:13.260Z,61.20
2018-05-04T20:04:41.517Z,61.60
2018-05-04T20:07:09.832Z,62.40
2018-05-04T20:09:38.089Z,63.10
2018-05-04T20:12:06.357Z,63.20
2018-05-04T20:14:34.616Z,63.60
2018-05-04T20:17:02.949Z,63.80
2018-05-04T20:19:31.295Z,64.00
2018-05-04T20:21:59.600Z,64.30
2018-05-04T20:24:27.927Z,64.20
2018-05-04T20:26:56.188Z,64.60
2018-05-04T20:29:24.432Z,64.30
2018-05-04T20:31:53.490Z,65.30
2018-05-04T20:34:21.765Z,65.10
2018-05-04T20:36:50.034Z,65.20
2018-05-04T20:39:18.347Z,65.60
2018-05-04T20:41:46.579Z,65.70
2018-05-04T20:44:14.881Z,65.90
2018-05-04T20:46:43.153Z,66.20
2018-05-04T20:49:11.531Z,66.20
2018-05-04T20:51:39.801Z,66.50
2018-05-04T20:54:08.064Z,66.90
2018-05-04T20:56:36.333Z,66.90
2018-05-04T20:59:04.622Z,66.90
2018-05-04T21:01:32.997Z,67.40
2018-05-04T21:04:01.308Z,67.50
2018-05-04T21:06:29.536Z,67.60
2018-05-04T21:08:57.808Z,67.80
2018-05-04T21:11:26.049Z,68.00
2018-05-04T21:13:55.102Z,68.40
2018-05-04T21:16:23.332Z,68.40
2018-05-04T21:18:51.601Z,68.40
2018-05-04T21:21:20.639Z,68.70
2018-05-04T21:23:48.909Z,68.50
2018-05-04T21:26:17.163Z,68.70
2018-05-04T21:28:45.495Z,69.20
2018-05-04T21:31:13.732Z,69.00
2018-05-04T21:33:42.050Z,69.00
2018-05-04T21:36:10.289Z,69.40
2018-05-04T21:38:38.540Z,69.40
2018-05-04T21:41:06.791Z,69.50
2018-05-04T21:43:35.833Z,69.00
2018-05-04T21:46:04.075Z,68.90
2018-05-04T21:48:32.375Z,69.70
2018-05-04T21:51:00.612Z,70.00
2018-05-04T21:53:29.669Z,70.30
2018-05-04T21:55:57.903Z,70.20
2018-05-04T21:58:26.196Z,70.40
2018-05-04T22:00:54.818Z,70.50
2018-05-04T22:03:23.163Z,70.40
2018-05-04T22:05:51.395Z,70.40
2018-05-04T22:08:20.458Z,70.40
2018-05-04T22:10:48.709Z,70.30
2018-05-04T22:13:16.953Z,70.20
2018-05-04T22:15:45.209Z,70.60
2018-05-04T22:18:14.211Z,71.20
2018-05-04T22:20:42.465Z,71.20
2018-05-04T22:23:11.463Z,71.50
2018-05-04T22:25:40.508Z,71.50
2018-05-04T22:28:08.794Z,71.50
2018-05-04T22:30:37.039Z,71.80
2018-05-04T22:33:05.337Z,71.90
2018-05-04T22:35:33.585Z,72.00
2018-05-04T22:38:01.829Z,71.90
2018-05-04T22:40:30.845Z,72.10
2018-05-04T22:42:59.090Z,72.10
2018-05-04T22:45:27.337Z,72.00
2018-05-04T22:47:55.601Z,72.90
2018-05-04T22:50:23.839Z,71.90
2018-05-04T22:52:52.148Z,72.10
2018-05-04T22:55:20.521Z,72.20
2018-05-04T22:57:48.800Z,71.90
2018-05-04T23:00:24.942Z,72.00
2018-05-04T23:02:53.186Z,72.10
2018-05-04T23:05:21.428Z,72.10
2018-05-04T23:07:49.691Z,72.50
2018-05-04T23:10:17.931Z,72.60
2018-05-04T23:12:46.936Z,72.70
2018-05-04T23:15:15.233Z,72.70
2018-05-04T23:17:43.476Z,73.00
2018-05-04T23:20:12.481Z,73.20
2018-05-04T23:22:40.782Z,73.20
2018-05-04T23:25:09.021Z,73.60
2018-05-04T23:27:38.033Z,73.80
2018-05-04T23:30:06.274Z,73.70
2018-05-04T23:32:35.305Z,73.40
2018-05-04T23:35:03.611Z,73.00
2018-05-04T23:37:31.857Z,73.10
2018-05-04T23:40:00.105Z,73.50
2018-05-04T23:42:29.123Z,74.10
2018-05-04T23:44:57.373Z,74.00
2018-05-04T23:47:26.393Z,74.10
2018-05-04T23:49:54.659Z,74.00
2018-05-04T23:52:22.891Z,74.00
2018-05-04T23:54:51.149Z,74.00
2018-05-04T23:57:19.380Z,74.10
2018-05-04T23:59:47.680Z,74.50
